• Join FlightAware (Why Join?)
  • Login
  • US Flag 
10:17AM EDT


 

Airport Tracker/Info


-or-


 

Live Flight TrackerFlight Track Log ✈ N589H ✈ 04-Apr-2014 ✈ KPIE - KMOB

Flight Track Log - Related Links

Times and Time Zones

All times are in EDT time to prevent confusion due to time zone crossing. See the N589H flight status page for this flight to view local times or setup timezone preferences in your user account.

Time Position Orientation Groundspeed Altitude Reporting Facility
EDT Latitude Longitude Course Direction KTS MPH feet Rate Location/Type
08:43AM 27.9000 -82.6833 254° West 106 122 900  Level Tampa TRACON
08:44AM 27.8833 -82.7500 254° West 198 228 2,000 720 Climbing Tampa TRACON
08:45AM 27.9167 -82.8167 300° West 261 300 2,600 960 Climbing Tampa TRACON
08:46AM 27.9833 -82.8000 12° North 258 297 4,000 1,680 Climbing Tampa TRACON
08:48AM 28.1144 -82.8267 350° North 247 284 7,700 2,040 Climbing Jacksonville Center
08:49AM 28.1769 -82.8267 360° North 231 266 10,200 1,620 Climbing Jacksonville Center
08:50AM 28.2458 -82.8314 357° North 226 260 11,000 420 Climbing Jacksonville Center
08:51AM 28.3253 -82.8503 348° North 261 300 11,100 960 Climbing Jacksonville Center
08:52AM 28.3942 -82.8972 329° Northwest 280 322 13,000 1,920 Climbing Jacksonville Center
08:53AM 28.4567 -82.9350 332° Northwest 270 311 15,000 1,980 Climbing Jacksonville Center
08:54AM 28.5150 -82.9731 330° Northwest 254 292 17,000 1,920 Climbing Jacksonville Center
08:55AM 28.5736 -83.0083 332° Northwest 243 280 18,900 1,920 Climbing Jacksonville Center
08:56AM 28.6339 -83.0439 333° Northwest 243 280 20,900 1,980 Climbing Jacksonville Center
08:57AM 28.6756 -83.0961 312° West 224 258 22,900 1,980 Climbing Jacksonville Center
08:58AM 28.7006 -83.1553 296° West 219 252 24,900 1,320 Climbing Jacksonville Center
08:59AM 28.7275 -83.2242 294° West 219 252 25,600 540 Climbing Jacksonville Center
09:00AM 28.7608 -83.3047 295° West 240 276 26,000 180 Climbing Jacksonville Center
09:01AM 28.7981 -83.3950 295° West 281 323 26,000  Level Jacksonville Center
09:02AM 28.8394 -83.4900 296° West 317 365 26,000  Level Jacksonville Center
09:03AM 28.8806 -83.5872 296° West 332 382 26,000  Level Jacksonville Center
09:04AM 28.9197 -83.6872 294° West 339 390 26,000  Level Jacksonville Center
09:05AM 28.9628 -83.7850 297° West 339 390 26,000  Level Jacksonville Center
09:06AM 29.0017 -83.8850 294° West 339 390 26,000  Level Jacksonville Center
09:07AM 29.0428 -83.9828 296° West 339 390 26,000  Level Jacksonville Center
09:08AM 29.0814 -84.0831 294° West 339 390 26,000  Level Jacksonville Center
09:09AM 29.1203 -84.1786 295° West 339 390 26,000  Level Jacksonville Center
09:10AM 29.1631 -84.2767 297° West 339 390 26,000  Level Jacksonville Center
09:11AM 29.2036 -84.3769 295° West 339 390 26,000  Level Jacksonville Center
09:12AM 29.2339 -84.4561 294° West 339 390 26,000  Level Jacksonville Center
09:13AM 29.2806 -84.5686 295° West 339 390 26,000  Level Jacksonville Center
09:14AM 29.3211 -84.6694 295° West 339 390 26,000  Level Jacksonville Center
09:15AM 29.3614 -84.7700 295° West 339 390 26,000  Level Jacksonville Center
09:16AM 29.4014 -84.8711 294° West 339 390 26,000  Level Jacksonville Center
09:17AM 29.4397 -84.9694 294° West 339 390 26,000  Level Jacksonville Center
09:18AM 29.4819 -85.0683 296° West 339 390 26,000  Level Jacksonville Center
09:19AM 29.5217 -85.1694 294° West 339 390 26,000  Level Jacksonville Center
09:20AM 29.5617 -85.2706 294° West 339 390 26,000  Level Jacksonville Center
09:21AM 29.6017 -85.3694 295° West 339 390 26,000  Level Jacksonville Center
09:22AM 29.6414 -85.4683 295° West 339 390 26,000  Level Jacksonville Center
09:23AM 29.6811 -85.5700 294° West 339 390 26,000  Level Jacksonville Center
09:24AM 29.7186 -85.6689 294° West 339 390 26,000  Level Jacksonville Center
09:25AM 29.7581 -85.7681 295° West 339 390 26,000  Level Jacksonville Center
09:26AM 29.7975 -85.8675 295° West 339 390 26,000  Level Jacksonville Center
09:27AM 29.8369 -85.9692 294° West 339 390 26,000  Level Jacksonville Center
09:28AM 29.8803 -86.0783 295° West 339 390 26,000  Level Jacksonville Center
09:29AM 29.9233 -86.1878 294° West 355 409 26,000  Level Jacksonville Center
09:30AM 29.9583 -86.2847 293° West 361 415 26,000  Level Jacksonville Center
09:31AM 29.9975 -86.3867 294° West 361 415 26,000  Level Jacksonville Center
09:32AM 30.0364 -86.4867 294° West 355 409 26,000  Level Jacksonville Center
09:33AM 30.0753 -86.5889 294° West 350 403 26,000  Level Jacksonville Center
09:34AM 30.1161 -86.6889 295° West 344 396 26,000  Level Jacksonville Center
09:35AM 30.1528 -86.7864 294° West 339 390 26,000  Level Jacksonville Center
09:36AM 30.1894 -86.8864 293° West 339 390 26,000  Level Jacksonville Center
09:36AM 30.1967 -86.9178 285° West 341 392 26,000  Level Jacksonville Center
09:37AM 30.2161 -86.9667 295° West 341 392 26,000 -180 Level Jacksonville Center
09:37AM 30.2261 -86.9792 313° West 339 390 25,900 -1,020 Descending Jacksonville Center
09:38AM 30.2564 -87.0717 291° West 348 400 25,000 -1,020 Descending Jacksonville Center
09:38AM 30.2644 -87.0817 313° West 339 390 24,900 -1,020 Descending Jacksonville Center
09:39AM 30.2822 -87.1786 282° West 342 394 24,000 -900 Descending Jacksonville Center
09:39AM 30.2861 -87.1861 301° West 339 390 24,000 -1,380 Level Jacksonville Center
09:40AM 30.2847 -87.2847 269° West 323 372 22,600 -1,620 Descending Jacksonville Center
09:40AM 30.2886 -87.2944 295° West 328 377 22,400 -2,100 Descending Jacksonville Center
09:41AM 30.2917 -87.3861 272° West 324 373 20,500 -2,100 Descending Jacksonville Center
09:41AM 30.2956 -87.3981 291° West 333 383 20,300 -1,920 Descending Jacksonville Center
09:42AM 30.2981 -87.5017 272° West 333 383 18,200 -1,800 Descending Jacksonville Center
09:43AM 30.3006 -87.6006 272° West 328 377 16,700 -1,740 Descending Jacksonville Center
09:44AM 30.3472 -87.6817 304° West 309 356 14,800 -1,920 Descending Houston Center
09:45AM 30.3950 -87.7617 305° West 305 351 12,900 -2,040 Descending Houston Center
09:46AM 30.4408 -87.8372 305° West 293 337 10,700 -2,340 Descending Houston Center
09:47AM 30.5114 -87.9042 321° Northwest 293 337 8,100 -2,340 Descending Houston Center
09:48AM 30.5733 -87.9403 333° Northwest 257 296 5,900 -1,920 Descending Houston Center
09:49AM 30.6272 -87.9792 328° Northwest 236 272 4,200 -900 Descending Houston Center
09:50AM 30.6711 -88.0231 319° Northwest 214 246 4,100 -120 Descending Houston Center
09:51AM 30.7181 -88.0672 321° Northwest 214 246 4,000 -60 Descending Houston Center
09:52AM 30.7650 -88.1122 321° Northwest 217 250 4,000 -180 Level Houston Center
09:53AM 30.8242 -88.1689 321° Northwest 225 259 3,700 -780 Descending Houston Center
09:54AM 30.8606 -88.2167 312° West 213 245 2,500 -900 Descending Houston Center
09:55AM 30.8817 -88.2753 293° West 203 234 1,900 -300 Descending Houston Center
09:56AM 30.8589 -88.3164 237° Southwest 174 200 1,900 -60 Level Houston Center
09:57AM 30.8239 -88.3506 220° Southwest 179 206 1,800 -60 Descending Houston Center
09:58AM 30.7831 -88.3183 146° Southeast 183 211 1,800 -300 Level Houston Center
09:59AM 30.7475 -88.2908 146° Southeast 168 193 1,300 -600 Descending Houston Center
10:01AM 30.7158 -88.2644 144° Southeast 135 155 600 -480 Descending Houston Center
10:02AM 30.6883 -88.2414 144° Southeast 132 152 400 -240 Descending Houston Center